Time;durP1;ratioP1;P1;durP2;ratioP2;P2;SDS_P1;SDS_P2;PMS_P1;PMS_P2;Temp;Humidity;BMP_temperature;BMP_pressure;BME280_temperature;BME280_humidity;BME280_pressure;Samples;Min_cycle;Max_cycle;Signal;HPM_P1;HPM_P2
2023/02/15 00:02:36;;;;;;;;;;;;;;;;;;;;;
2023/02/15 00:08:13;;;;;;;;;;;;;;;;;;;;;
2023/02/15 00:12:29;;;;;;;;;;;;;;;;;;;;;
2023/02/15 00:18:27;;;;;;;0.00;0.00;;;;;;;4.78;81.77;101300.44;6024121;23;19914;-79
2023/02/15 00:21:44;;;;;;;0.00;0.00;;;;;;;4.81;81.16;101290.00;5984567;23;20008;-81
2023/02/15 00:28:23;;;;;;;;;;;;;;;;;;;;;
2023/02/15 00:30:37;;;;;;;0.00;0.00;;;;;;;4.95;81.49;101287.31;6041237;23;20074;-75
2023/02/15 00:33:14;;;;;;;0.00;0.00;;;;;;;4.87;81.48;101263.97;6048924;23;20354;-77
2023/02/15 00:36:03;;;;;;;0.00;0.00;;;;;;;4.87;81.25;101263.97;6173331;23;20005;-76
2023/02/15 00:38:30;;;;;;;0.00;0.00;;;;;;;5.11;80.77;101294.19;6197921;23;20004;-77
2023/02/15 00:41:01;;;;;;;0.00;0.00;;;;;;;5.00;81.02;101269.38;6196915;23;20032;-78
2023/02/15 00:43:31;;;;;;;0.00;0.00;;;;;;;5.13;81.20;101282.13;6195343;23;20005;-76
2023/02/15 00:45:58;;;;;;;0.00;0.00;;;;;;;5.06;81.56;101256.88;6196531;23;20068;-77
2023/02/15 00:48:26;;;;;;;0.00;0.00;;;;;;;5.07;81.09;101251.25;6196381;23;20001;-77
2023/02/15 00:50:55;;;;;;;0.00;0.00;;;;;;;5.19;80.81;101269.59;6170728;23;20427;-75
2023/02/15 00:53:21;;;;;;;0.00;0.00;;;;;;;5.14;81.03;101250.41;6192538;23;20006;-76
2023/02/15 00:55:54;;;;;;;0.00;0.00;;;;;;;5.17;80.29;101255.41;6189070;23;20005;-76
2023/02/15 00:58:23;;;;;;;0.00;0.00;;;;;;;5.11;81.08;101239.97;6189448;23;20029;-76
2023/02/15 01:00:48;;;;;;;0.00;0.00;;;;;;;5.09;80.58;101231.22;6167755;23;20013;-75
2023/02/15 01:03:18;;;;;;;0.00;0.00;;;;;;;5.10;80.29;101230.19;6192538;23;20013;-76
2023/02/15 01:17:55;;;;;;;;;;;;;;;;;;;;;
2023/02/15 01:24:41;;;;;;;;;;;;;;;;;;;;;
2023/02/15 01:28:18;;;;;;;;;;;;;;;;;;;;;
2023/02/15 01:34:59;;;;;;;0.00;0.00;;;;;;;4.43;82.16;101167.88;5839578;24;20022;-75
2023/02/15 01:38:18;;;;;;;;;;;;;;;;;;;;;
2023/02/15 01:45:00;;;;;;;0.00;0.00;;;;;;;4.62;82.09;101223.91;5813066;24;20054;-75
2023/02/15 01:51:52;;;;;;;;;;;;;;;;;;;;;
2023/02/15 01:54:52;;;;;;;0.00;0.00;;;;;;;4.42;83.45;101210.34;5858061;24;20037;-76
2023/02/15 02:11:24;;;;;;;0.00;0.00;;;;;;;3.90;84.76;101169.44;5929770;23;20349;-75
2023/02/15 02:13:56;;;;;;;0.00;0.00;;;;;;;4.09;85.26;101196.72;6101172;23;20025;-76
2023/02/15 02:17:15;;;;;;;;;;;;;;;;;;;;;
2023/02/15 03:01:02;;;;;;;0.00;0.00;;;;;;;3.72;88.05;101106.94;6121307;23;20013;-76
2023/02/15 03:03:36;;;;;;;0.00;0.00;;;;;;;3.80;87.50;101121.09;6163404;23;20439;-77
2023/02/15 03:06:08;;;;;;;0.10;0.10;;;;;;;3.79;88.17;101115.91;6193468;23;20005;-76
2023/02/15 03:08:42;;;;;;;0.10;0.10;;;;;;;3.81;87.96;101111.09;6166741;23;20001;-76
2023/02/15 03:11:16;;;;;;;0.00;0.00;;;;;;;3.81;88.41;101111.09;6192836;23;20064;-76
2023/02/15 03:13:44;;;;;;;0.00;0.00;;;;;;;3.97;88.73;101124.28;6166187;23;20016;-76
2023/02/15 03:16:28;;;;;;;0.00;0.00;;;;;;;3.87;88.71;101095.94;6167867;23;20322;-76
2023/02/15 03:18:59;;;;;;;0.10;0.10;;;;;;;3.91;88.96;101100.72;6218232;23;20050;-75
2023/02/15 03:49:36;;;;;;;0.00;0.00;;;;;;;3.91;89.57;101081.78;5955033;24;20019;-74
2023/02/15 03:52:59;;;;;;;0.00;0.00;;;;;;;3.92;89.12;101080.75;5961946;23;20032;-75
2023/02/15 04:02:40;;;;;;;0.00;0.00;;;;;;;3.92;89.24;101069.91;5924801;23;20025;-72
2023/02/15 04:05:14;;;;;;;0.00;0.00;;;;;;;3.78;90.35;101035.75;6085778;23;20017;-76
2023/02/15 04:08:19;;;;;;;0.00;0.00;;;;;;;3.93;90.29;101055.34;6157863;23;20012;-74
2023/02/15 04:25:19;;;;;;;0.00;0.00;;;;;;;3.92;92.35;101021.22;6006062;23;20516;-74
2023/02/15 04:27:52;;;;;;;0.00;0.00;;;;;;;3.90;91.62;101022.44;6017227;23;20019;-72
2023/02/15 04:30:26;;;;;;;0.00;0.00;;;;;;;3.88;92.09;101024.53;5991276;23;20007;-74
2023/02/15 04:32:54;;;;;;;0.08;0.08;;;;;;;3.80;92.24;101017.47;6171994;23;20011;-73
2023/02/15 04:35:19;;;;;;;0.00;0.00;;;;;;;3.89;92.50;101039.75;6222647;23;20426;-74
2023/02/15 04:42:02;;;;;;;;;;;;;;;;;;;;;
2023/02/15 04:48:18;;;;;;;0.00;0.00;;;;;;;3.50;93.44;101001.59;6045459;23;20426;-75
2023/02/15 04:50:44;;;;;;;0.00;0.00;;;;;;;3.56;93.96;101022.41;6030081;23;20422;-76
2023/02/15 04:53:21;;;;;;;;;;;;;;;;;;;;;
2023/02/15 04:56:07;;;;;;;0.00;0.00;;;;;;;3.60;95.08;101037.19;6179229;23;20028;-74
2023/02/15 04:58:32;;;;;;;0.00;0.00;;;;;;;3.44;94.54;101013.22;6221244;23;20001;-73
2023/02/15 05:00:58;;;;;;;0.00;0.00;;;;;;;3.67;95.15;101056.97;6195885;23;20015;-75
2023/02/15 05:03:24;;;;;;;0.10;0.10;;;;;;;3.59;95.38;101038.25;6171494;23;20009;-76
2023/02/15 05:05:50;;;;;;;0.00;0.00;;;;;;;3.55;95.80;101036.97;6174660;23;20005;-75
2023/02/15 05:08:16;;;;;;;0.00;0.00;;;;;;;3.66;95.15;101049.06;6194155;23;20017;-74
2023/02/15 05:10:42;;;;;;;0.00;0.00;;;;;;;3.47;95.76;101012.81;6225013;23;20009;-74
2023/02/15 05:16:58;;;;;;;;;;;;;;;;;;;;;
2023/02/15 05:19:24;;;;;;;0.05;0.05;;;;;;;3.53;96.34;101028.22;6071001;23;20028;-75
2023/02/15 05:21:52;;;;;;;0.00;0.00;;;;;;;3.53;96.12;101032.81;6192911;23;20020;-76
2023/02/15 05:29:49;;;;;;;0.00;0.00;;;;;;;3.59;97.19;101030.13;6221740;23;20015;-74
2023/02/15 05:32:15;;;;;;;0.00;0.00;;;;;;;3.62;96.74;101037.84;6193775;23;20068;-75
2023/02/15 05:35:01;;;;;;;0.00;0.00;;;;;;;3.67;97.55;101040.75;6171902;23;20012;-76
2023/02/15 05:37:31;;;;;;;0.10;0.10;;;;;;;3.63;97.13;101034.06;6170700;23;20013;-73
2023/02/15 05:39:57;;;;;;;0.00;0.00;;;;;;;3.65;97.73;101037.41;6172935;23;20009;-73
2023/02/15 05:42:25;;;;;;;0.00;0.00;;;;;;;3.63;97.13;101050.28;6193369;23;20023;-75
2023/02/15 05:44:53;;;;;;;0.00;0.00;;;;;;;3.53;97.83;101027.41;6196760;23;20016;-74
2023/02/15 05:47:18;;;;;;;0.00;0.00;;;;;;;3.42;97.94;101032.38;6194976;23;20070;-75
2023/02/15 05:49:44;;;;;;;0.00;0.00;;;;;;;3.46;98.56;101049.00;6167732;23;20064;-75
2023/02/15 05:52:09;;;;;;;0.00;0.00;;;;;;;3.27;98.40;101029.84;6171656;23;20008;-76
2023/02/15 05:54:35;;;;;;;0.00;0.00;;;;;;;3.22;98.40;101026.88;6220309;23;20001;-76
2023/02/15 05:57:00;;;;;;;0.05;0.05;;;;;;;3.34;98.53;101046.06;6195933;23;20027;-76
2023/02/15 05:59:26;;;;;;;0.00;0.00;;;;;;;3.14;98.86;101024.38;6169762;23;20323;-76
2023/02/15 06:01:51;;;;;;;0.00;0.00;;;;;;;3.12;99.24;101037.25;6174251;23;20009;-77
2023/02/15 06:04:17;;;;;;;0.00;0.00;;;;;;;3.01;99.39;101035.13;6196555;23;20099;-74
2023/02/15 06:06:42;;;;;;;0.00;0.00;;;;;;;3.02;99.79;101048.41;6218568;23;20005;-75
2023/02/15 06:09:13;;;;;;;0.00;0.00;;;;;;;3.00;99.71;101050.50;6195778;23;20012;-74
2023/02/15 06:11:47;;;;;;;0.10;0.10;;;;;;;2.92;99.54;101039.84;6171457;23;20010;-76
2023/02/15 06:14:15;;;;;;;0.00;0.00;;;;;;;2.88;100.00;101028.63;6198427;23;20019;-75
2023/02/15 06:16:48;;;;;;;0.00;0.00;;;;;;;2.85;100.00;101018.22;6194636;23;20001;-76
2023/02/15 06:19:14;;;;;;;0.00;0.00;;;;;;;3.12;99.68;101053.47;6173297;23;20386;-75
2023/02/15 06:21:42;;;;;;;0.00;0.00;;;;;;;3.01;99.75;101016.19;6194542;23;20076;-77
2023/02/15 06:24:12;;;;;;;0.10;0.10;;;;;;;3.13;100.00;101037.03;6196066;23;20001;-76
2023/02/15 06:26:38;;;;;;;0.00;0.00;;;;;;;3.09;99.46;101026.84;6193983;23;20059;-76
2023/02/15 06:29:04;;;;;;;0.00;0.00;;;;;;;3.02;99.58;101028.69;6223901;23;20035;-76
2023/02/15 06:31:29;;;;;;;0.00;0.00;;;;;;;3.07;99.90;101039.75;6195155;23;20004;-75
2023/02/15 06:34:00;;;;;;;0.08;0.08;;;;;;;3.01;100.00;101040.53;6190095;23;20032;-76
2023/02/15 06:36:30;;;;;;;0.10;0.10;;;;;;;3.10;100.00;101044.72;6191592;23;20424;-76
2023/02/15 06:38:56;;;;;;;0.00;0.00;;;;;;;3.19;100.00;101045.41;6191393;23;20477;-76
2023/02/15 06:41:21;;;;;;;0.03;0.03;;;;;;;3.28;100.00;101058.50;6167944;23;20040;-76
2023/02/15 06:43:47;;;;;;;0.00;0.00;;;;;;;3.25;99.70;101042.69;6218255;23;19996;-75
2023/02/15 06:46:12;;;;;;;0.00;0.00;;;;;;;3.34;99.81;101056.03;6190442;23;20009;-75
2023/02/15 06:48:37;;;;;;;0.00;0.00;;;;;;;3.27;99.95;101051.47;6142910;23;20034;-75
2023/02/15 06:51:03;;;;;;;0.10;0.10;;;;;;;3.29;100.00;101064.78;6188863;23;20014;-76
2023/02/15 06:53:29;;;;;;;0.00;0.00;;;;;;;3.24;100.00;101064.53;6144185;23;20127;-76
2023/02/15 06:56:06;;;;;;;0.00;0.00;;;;;;;3.25;100.00;101058.09;6215224;23;20052;-76
2023/02/15 06:58:41;;;;;;;0.00;0.00;;;;;;;3.22;100.00;101053.91;6191173;23;20024;-75
2023/02/15 07:01:08;;;;;;;0.00;0.00;;;;;;;3.20;100.00;101055.16;6192039;23;20008;-76
2023/02/15 07:03:34;;;;;;;0.00;0.00;;;;;;;3.14;100.00;101051.41;6191931;23;20047;-76
2023/02/15 07:06:02;;;;;;;0.00;0.00;;;;;;;3.18;100.00;101062.63;6166687;23;20009;-76
2023/02/15 07:08:28;;;;;;;0.00;0.00;;;;;;;3.12;100.00;101069.69;6214856;23;20028;-75
2023/02/15 07:12:40;;;;;;;0.00;0.00;;;;;;;3.14;100.00;101073.03;6167336;23;20009;-74
2023/02/15 07:13:42;;;;;;;0.00;0.00;;;;;;;3.12;100.00;101056.16;6217780;23;20019;-78
2023/02/15 07:16:08;;;;;;;0.00;0.00;;;;;;;3.07;100.00;101047.84;6165494;23;20062;-77
2023/02/15 07:18:33;;;;;;;0.00;0.00;;;;;;;3.22;100.00;101059.31;6164002;23;20055;-76
2023/02/15 07:20:58;;;;;;;0.00;0.00;;;;;;;3.30;100.00;101059.16;6191001;23;20074;-77
2023/02/15 07:23:25;;;;;;;0.00;0.00;;;;;;;3.34;100.00;101066.88;6189043;23;20091;-77
2023/02/15 07:26:00;;;;;;;0.00;0.00;;;;;;;3.38;100.00;101078.94;6144224;23;20451;-76
2023/02/15 07:28:25;;;;;;;0.10;0.10;;;;;;;3.30;100.00;101061.88;6164132;23;20020;-76
2023/02/15 07:30:51;;;;;;;0.00;0.00;;;;;;;3.34;100.00;101064.16;6168510;23;20008;-77
2023/02/15 07:33:22;;;;;;;0.00;0.00;;;;;;;3.42;100.00;101075.63;6167318;23;20664;-76
2023/02/15 07:35:54;;;;;;;0.00;0.00;;;;;;;3.40;100.00;101071.44;6166874;23;20012;-77
2023/02/15 07:38:20;;;;;;;0.00;0.00;;;;;;;3.42;100.00;101075.63;6192844;23;20004;-76
2023/02/15 07:40:46;;;;;;;0.00;0.00;;;;;;;3.43;100.00;101073.75;6188757;23;20001;-77
2023/02/15 07:43:11;;;;;;;0.00;0.00;;;;;;;3.49;100.00;101076.50;6192281;23;20020;-77
2023/02/15 07:45:37;;;;;;;0.00;0.00;;;;;;;3.50;100.00;101080.00;6192688;23;20013;-77
2023/02/15 07:48:03;;;;;;;0.00;0.00;;;;;;;3.47;100.00;101077.72;6222645;23;20446;-78
2023/02/15 07:50:29;;;;;;;0.00;0.00;;;;;;;3.54;100.00;101084.00;6170991;23;20039;-77
2023/02/15 07:52:55;;;;;;;0.10;0.10;;;;;;;3.52;100.00;101080.66;6188236;23;20017;-77
2023/02/15 07:55:21;;;;;;;0.00;0.00;;;;;;;3.51;100.00;101076.28;6196039;23;20036;-80
2023/02/15 07:57:48;;;;;;;0.00;0.00;;;;;;;3.58;100.00;101089.84;6190668;23;20011;-81
2023/02/15 08:00:16;;;;;;;0.00;0.00;;;;;;;3.44;100.00;101061.91;6195347;23;20000;-81
2023/02/15 08:02:49;;;;;;;0.00;0.00;;;;;;;3.58;100.00;101073.63;6193783;23;20000;-80
2023/02/15 08:05:41;;;;;;;0.10;0.10;;;;;;;3.52;100.00;101048.22;6220727;23;20004;-80
2023/02/15 08:08:29;;;;;;;0.00;0.00;;;;;;;3.59;100.00;101038.25;6196290;23;20072;-80
2023/02/15 08:13:54;;;;;;;0.10;0.10;;;;;;;3.92;100.00;101069.09;6223057;23;20020;-78
2023/02/15 08:16:24;;;;;;;0.00;0.00;;;;;;;3.98;100.00;101060.97;6198144;23;20019;-82
2023/02/15 08:18:52;;;;;;;0.00;0.00;;;;;;;3.96;100.00;101044.13;6199149;23;20004;-81
2023/02/15 08:21:18;;;;;;;0.00;0.00;;;;;;;4.21;100.00;101065.16;6176351;23;20011;-81
2023/02/15 08:23:43;;;;;;;0.00;0.00;;;;;;;4.23;100.00;101048.72;6201905;23;20048;-81
2023/02/15 08:26:11;;;;;;;0.10;0.10;;;;;;;4.36;100.00;101054.94;6175130;23;20028;-81
2023/02/15 08:28:49;;;;;;;;;;;;;;;;;;;;;
2023/02/15 08:31:18;;;;;;;0.10;0.10;;;;;;;4.64;100.00;101066.56;6204678;23;20403;-81
2023/02/15 08:33:55;;;;;;;0.10;0.10;;;;;;;4.64;100.00;101045.72;6200345;23;20715;-81
2023/02/15 08:36:37;;;;;;;;;;;;;;;;;;;;;
2023/02/15 08:39:05;;;;;;;0.00;0.00;;;;;;;5.04;100.00;101061.91;6215198;23;20513;-76
2023/02/15 08:42:29;;;;;;;;;;;;;;;;;;;;;
2023/02/15 08:44:57;;;;;;;;;;;;;;;;;;;;;
2023/02/15 08:47:56;;;;;;;;;;;;;;;;;;;;;
2023/02/15 08:50:40;;;;;;;0.00;0.00;;;;;;;9.20;84.97;101072.38;6171645;23;20028;-77
2023/02/15 08:56:21;;;;;;;0.03;0.03;;;;;;;9.67;80.28;101057.75;6192282;23;20024;-78
2023/02/15 08:59:20;;;;;;;0.00;0.00;;;;;;;10.53;77.89;101053.19;6190555;23;20000;-78
2023/02/15 09:02:19;;;;;;;;;;;;;;;;;;;;;
2023/02/15 09:04:55;;;;;;;0.00;0.00;;;;;;;12.10;70.50;101072.91;6193405;23;20043;-78
2023/02/15 09:07:20;;;;;;;0.00;0.00;;;;;;;12.32;69.05;101059.91;6222148;23;20033;-77
2023/02/15 09:09:46;;;;;;;0.00;0.00;;;;;;;12.53;68.94;101087.53;6188860;23;20009;-77
2023/02/15 09:12:11;;;;;;;0.00;0.00;;;;;;;12.29;68.89;101073.34;6218645;23;20001;-78
2023/02/15 09:14:37;;;;;;;0.00;0.00;;;;;;;12.48;70.20;101090.22;6217671;23;20008;-76
2023/02/15 09:17:05;;;;;;;0.00;0.00;;;;;;;12.97;68.86;101073.53;6166629;23;20423;-76
2023/02/15 09:19:33;;;;;;;0.00;0.00;;;;;;;13.69;68.17;101073.84;6192431;23;20078;-76
2023/02/15 09:22:00;;;;;;;0.00;0.00;;;;;;;15.15;65.05;101059.75;6185939;23;20008;-76
2023/02/15 09:24:25;;;;;;;0.00;0.00;;;;;;;17.04;59.86;101097.31;6167518;23;20013;-75
2023/02/15 09:26:53;;;;;;;0.00;0.00;;;;;;;18.13;55.55;101070.69;6163592;23;20324;-76
2023/02/15 09:29:24;;;;;;;0.00;0.00;;;;;;;19.14;53.58;101085.00;6192028;23;19985;-76
2023/02/15 09:31:53;;;;;;;0.00;0.00;;;;;;;19.57;51.72;101075.50;6164559;23;20005;-76
2023/02/15 09:34:20;;;;;;;0.00;0.00;;;;;;;19.63;51.57;101090.91;6170482;23;20004;-77
2023/02/15 09:36:47;;;;;;;0.03;0.03;;;;;;;19.82;51.93;101084.41;6171764;23;20058;-76
2023/02/15 09:39:24;;;;;;;0.00;0.00;;;;;;;20.58;50.93;101092.00;6198419;23;20035;-76
2023/02/15 09:42:14;;;;;;;0.00;0.00;;;;;;;21.07;49.17;101081.81;6223135;23;20008;-75
2023/02/15 09:45:14;;;;;;;0.00;0.00;;;;;;;22.32;47.29;101085.28;6215132;23;19988;-77
2023/02/15 09:47:58;;;;;;;0.00;0.00;;;;;;;23.92;44.30;101093.44;6188241;23;20009;-78
2023/02/15 09:51:05;;;;;;;0.00;0.00;;;;;;;25.19;41.59;101111.56;6191041;23;20012;-77
2023/02/15 09:54:01;;;;;;;;;;;;;;;;;;;;;
2023/02/15 09:56:31;;;;;;;0.00;0.00;;;;;;;27.69;37.16;101098.50;6159554;23;20032;-76
2023/02/15 09:59:08;;;;;;;0.00;0.00;;;;;;;28.67;36.05;101090.09;6184422;23;20091;-77
2023/02/15 10:01:58;;;;;;;0.00;0.00;;;;;;;29.42;34.08;101098.16;6188696;23;20008;-76
2023/02/15 10:05:07;;;;;;;0.00;0.00;;;;;;;29.20;34.38;101077.28;6189319;23;20087;-76
2023/02/15 10:08:06;;;;;;;0.00;0.00;;;;;;;29.41;33.96;101088.91;6192642;23;20032;-76
2023/02/15 10:10:43;;;;;;;0.00;0.00;;;;;;;28.48;30.38;101070.41;6192744;23;20032;-78
2023/02/15 10:13:43;;;;;;;0.00;0.00;;;;;;;27.73;32.34;101067.69;6217352;23;20032;-76
2023/02/15 10:16:17;;;;;;;0.00;0.00;;;;;;;27.41;31.72;101081.00;6156381;23;20000;-77
2023/02/15 10:18:51;;;;;;;0.00;0.00;;;;;;;25.09;32.67;101040.09;6188820;23;20008;-77
2023/02/15 10:21:40;;;;;;;;;;;;;;;24.64;34.64;101074.56;6190585;23;20000;-80
2023/02/15 10:24:33;;;;;;;0.00;0.00;;;;;;;25.41;33.96;101071.13;6217777;23;19911;-81
2023/02/15 10:27:11;;;;;;;0.00;0.00;;;;;;;26.91;31.33;101064.56;6186393;23;20008;-77
2023/02/15 10:29:48;;;;;;;0.00;0.00;;;;;;;27.98;28.46;101059.81;6190467;23;20004;-77
2023/02/15 10:32:35;;;;;;;0.00;0.00;;;;;;;27.90;28.64;101057.19;6191478;23;20335;-78
2023/02/15 10:35:36;;;;;;;0.00;0.00;;;;;;;27.73;29.26;101042.41;6191484;23;20007;-78
2023/02/15 10:38:11;;;;;;;0.00;0.00;;;;;;;25.09;30.63;101067.25;6192212;23;20009;-77
2023/02/15 10:40:59;;;;;;;0.00;0.00;;;;;;;21.43;35.76;101050.16;6187865;23;20015;-76
2023/02/15 10:43:54;;;;;;;0.00;0.00;;;;;;;18.26;42.25;101057.22;6191562;23;20013;-76
2023/02/15 10:46:46;;;;;;;0.00;0.00;;;;;;;15.88;48.43;101067.38;6191374;23;20005;-76
2023/02/15 10:49:20;;;;;;;0.00;0.00;;;;;;;14.29;54.04;101051.34;6132992;23;20081;-77
2023/02/15 10:52:15;;;;;;;0.00;0.00;;;;;;;14.13;57.68;101056.88;6192639;23;20005;-77
2023/02/15 10:54:55;;;;;;;0.00;0.00;;;;;;;15.09;55.32;101050.69;6190584;23;20015;-76
2023/02/15 10:57:49;;;;;;;0.00;0.00;;;;;;;16.48;51.67;101063.59;6213387;23;21046;-76
2023/02/15 11:00:38;;;;;;;0.00;0.00;;;;;;;15.98;52.82;101057.41;6189812;23;20059;-76
2023/02/15 11:03:33;;;;;;;0.00;0.00;;;;;;;16.25;52.02;101069.88;6192306;23;20008;-76
2023/02/15 11:06:15;;;;;;;0.00;0.00;;;;;;;15.32;54.57;101075.94;6189079;23;20317;-76
2023/02/15 11:08:44;;;;;;;0.00;0.00;;;;;;;14.87;55.64;101080.50;6218072;23;20011;-77
2023/02/15 11:11:42;;;;;;;0.00;0.00;;;;;;;14.68;57.04;101072.81;6189106;23;20009;-75
2023/02/15 11:14:20;;;;;;;0.00;0.00;;;;;;;16.57;54.34;101072.91;6191789;23;20004;-76
2023/02/15 11:16:57;;;;;;;0.00;0.00;;;;;;;19.31;45.76;101073.28;6221528;23;20063;-76
2023/02/15 11:19:32;;;;;;;0.00;0.00;;;;;;;21.16;42.03;101075.44;6191704;23;19999;-75
2023/02/15 11:22:01;;;;;;;0.00;0.00;;;;;;;23.28;39.04;101073.03;6193931;23;19997;-75
2023/02/15 11:24:29;;;;;;;0.00;0.00;;;;;;;26.21;33.32;101076.28;6191468;23;20960;-75
2023/02/15 11:27:00;;;;;;;0.00;0.00;;;;;;;27.98;30.90;101076.69;6190416;23;20031;-76
2023/02/15 11:29:32;;;;;;;0.00;0.00;;;;;;;27.73;29.15;101069.69;6193673;23;20084;-76
2023/02/15 11:32:32;;;;;;;0.00;0.00;;;;;;;27.77;30.06;101067.75;6189907;23;20107;-75
2023/02/15 11:35:12;;;;;;;0.00;0.00;;;;;;;28.19;28.86;101067.06;6180945;23;20019;-76
2023/02/15 11:37:44;;;;;;;0.00;0.00;;;;;;;28.45;28.20;101059.91;6221019;23;20058;-76
2023/02/15 11:40:21;;;;;;;0.00;0.00;;;;;;;29.66;27.87;101071.56;6188071;23;20012;-76
2023/02/15 11:42:52;;;;;;;0.00;0.00;;;;;;;30.59;25.45;101076.72;6191177;23;20012;-77
2023/02/15 11:45:41;;;;;;;0.00;0.00;;;;;;;29.48;26.66;101073.31;6189719;23;20000;-76
2023/02/15 11:48:12;;;;;;;0.00;0.00;;;;;;;30.07;25.22;101080.16;6218900;23;20074;-76
2023/02/15 11:50:38;;;;;;;0.00;0.00;;;;;;;30.68;25.17;101054.63;6193302;23;20063;-76
2023/02/15 11:53:09;;;;;;;0.00;0.00;;;;;;;32.15;24.71;101057.59;6193860;23;20510;-76
2023/02/15 11:55:35;;;;;;;0.00;0.00;;;;;;;32.31;25.16;101047.94;6189779;23;20091;-76
2023/02/15 11:58:10;;;;;;;0.00;0.00;;;;;;;32.96;23.99;101048.00;6192033;23;20031;-76
2023/02/15 12:00:45;;;;;;;0.00;0.00;;;;;;;34.12;22.24;101059.88;6188190;23;20015;-75
2023/02/15 12:03:16;;;;;;;0.00;0.00;;;;;;;34.91;19.89;101060.16;6218758;23;20274;-78
2023/02/15 12:05:56;;;;;;;0.00;0.00;;;;;;;34.47;21.13;101041.81;6193873;23;20046;-77
2023/02/15 12:08:22;;;;;;;0.00;0.00;;;;;;;35.13;20.36;101042.91;6196802;23;20822;-75
2023/02/15 12:10:47;;;;;;;0.00;0.00;;;;;;;35.25;19.95;101053.75;6223911;23;19999;-75
2023/02/15 12:13:20;;;;;;;0.00;0.00;;;;;;;35.90;20.44;101038.81;6205399;23;20088;-75
2023/02/15 12:16:10;;;;;;;0.00;0.00;;;;;;;34.88;21.25;101054.50;6223361;23;20103;-74
2023/02/15 12:18:44;;;;;;;0.00;0.00;;;;;;;34.33;20.67;101047.59;6193579;23;20019;-76
2023/02/15 12:21:16;;;;;;;0.00;0.00;;;;;;;34.96;20.67;101056.88;6192956;23;19996;-76
2023/02/15 12:23:54;;;;;;;0.00;0.00;;;;;;;35.53;18.93;101049.00;6192507;23;19992;-76
2023/02/15 12:26:33;;;;;;;0.00;0.00;;;;;;;33.91;20.38;101051.03;6217567;23;20422;-76
2023/02/15 12:29:07;;;;;;;0.00;0.00;;;;;;;33.76;21.13;101032.47;6167818;23;20013;-75
2023/02/15 12:31:59;;;;;;;0.00;0.00;;;;;;;33.83;20.42;101025.97;6212948;23;20004;-75
2023/02/15 12:34:26;;;;;;;0.00;0.00;;;;;;;32.65;21.54;101028.59;6164741;23;20013;-75
2023/02/15 12:36:57;;;;;;;0.00;0.00;;;;;;;32.27;22.08;101025.31;6215447;23;20009;-77
2023/02/15 12:39:56;;;;;;;0.00;0.00;;;;;;;32.07;22.11;101036.13;6191234;23;20000;-76
2023/02/15 12:42:24;;;;;;;0.00;0.00;;;;;;;31.29;23.16;100995.00;6218517;23;20007;-76
2023/02/15 12:45:01;;;;;;;0.00;0.00;;;;;;;31.85;22.55;101010.63;6214706;23;20007;-76
2023/02/15 12:47:29;;;;;;;0.00;0.00;;;;;;;31.27;23.25;101003.06;6216664;23;20071;-75
2023/02/15 12:50:16;;;;;;;0.00;0.00;;;;;;;31.14;23.17;100999.75;6189834;23;20092;-76
2023/02/15 12:52:43;;;;;;;0.00;0.00;;;;;;;31.74;23.23;101009.75;6194482;23;20326;-80
2023/02/15 12:55:29;;;;;;;0.00;0.00;;;;;;;32.43;22.51;101007.91;6191641;23;20032;-81
2023/02/15 12:58:17;;;;;;;0.00;0.00;;;;;;;32.06;22.63;101003.41;6194670;23;20016;-80
2023/02/15 13:00:43;;;;;;;0.00;0.00;;;;;;;31.05;23.42;101002.91;6218109;23;20001;-80
2023/02/15 13:03:21;;;;;;;0.00;0.00;;;;;;;30.81;23.69;100976.91;6193775;23;20095;-80
2023/02/15 13:06:10;;;;;;;0.00;0.00;;;;;;;30.73;23.86;100974.44;6192689;23;20017;-80
2023/02/15 13:08:49;;;;;;;0.00;0.00;;;;;;;30.45;23.59;100970.97;6196984;23;20013;-83
2023/02/15 13:11:39;;;;;;;;;;;;;;;;;;;;;
2023/02/15 13:15:06;;;;;;;;;;;;;;;;;;;;;
2023/02/15 13:18:10;;;;;;;;;;;;;;;;;;;;;
2023/02/15 13:21:09;;;;;;;;;;;;;;;;;;;;;
2023/02/15 13:23:57;;;;;;;0.00;0.00;;;;;;;30.41;24.94;100958.03;6219493;23;20047;-79
2023/02/15 13:29:59;;;;;;;;;;;;;;;;;;;;;
2023/02/15 13:36:21;;;;;;;0.00;0.00;;;;;;;30.71;24.33;100938.13;6041938;23;20034;-79
2023/02/15 13:39:12;;;;;;;0.00;0.00;;;;;;;30.34;24.10;100967.22;6011943;23;20006;-79
2023/02/15 13:42:36;;;;;;;;;;;;;;;;;;;;;
2023/02/15 13:45:24;;;;;;;0.00;0.00;;;;;;;29.39;25.40;100967.34;6216866;23;20031;-81
2023/02/15 13:47:49;;;;;;;0.00;0.00;;;;;;;29.40;25.60;100946.44;6196864;23;20005;-83
2023/02/15 13:50:46;;;;;;;0.00;0.00;;;;;;;28.99;25.76;100935.00;6193977;23;20039;-84
2023/02/15 13:53:45;;;;;;;0.00;0.00;;;;;;;29.50;25.84;100953.41;6220391;23;20024;-84
2023/02/15 13:56:35;;;;;;;0.00;0.00;;;;;;;29.36;24.79;100939.94;6194596;23;20007;-83
2023/02/15 13:59:00;;;;;;;0.00;0.00;;;;;;;29.56;25.24;100937.78;6194049;23;20040;-84
2023/02/15 14:01:58;;;;;;;0.00;0.00;;;;;;;30.56;24.53;100936.41;6198124;23;20076;-85
2023/02/15 14:04:46;;;;;;;0.00;0.00;;;;;;;30.40;23.83;100957.22;6227900;23;20004;-83
2023/02/15 14:08:00;;;;;;;0.00;0.00;;;;;;;30.12;24.41;100946.47;6200630;23;20009;-83
2023/02/15 14:11:14;;;;;;;0.00;0.00;;;;;;;29.97;23.66;100910.91;6099395;23;20010;-84
2023/02/15 14:13:58;;;;;;;0.00;0.00;;;;;;;29.34;24.56;100919.81;6224987;23;20367;-83
2023/02/15 14:16:49;;;;;;;0.00;0.00;;;;;;;28.55;25.71;100935.53;6190326;23;20339;-83
2023/02/15 14:19:45;;;;;;;0.00;0.00;;;;;;;29.92;24.97;100923.31;6194075;23;20004;-84
2023/02/15 14:22:31;;;;;;;0.00;0.00;;;;;;;30.99;23.97;100928.22;6189167;23;20088;-83
2023/02/15 14:25:05;;;;;;;0.00;0.00;;;;;;;30.40;23.33;100926.19;6191555;23;20001;-83
2023/02/15 14:27:47;;;;;;;0.00;0.00;;;;;;;28.68;25.48;100939.78;6193601;23;20032;-82
2023/02/15 14:30:28;;;;;;;0.00;0.00;;;;;;;27.28;27.61;100925.88;6193069;23;20446;-83
2023/02/15 14:33:16;;;;;;;0.00;0.00;;;;;;;28.68;25.78;100948.22;6189139;23;20048;-82
2023/02/15 14:35:42;;;;;;;0.00;0.00;;;;;;;28.30;25.88;100919.06;6193688;23;20005;-81
2023/02/15 14:38:42;;;;;;;0.00;0.00;;;;;;;27.51;26.53;100940.84;6164794;23;20347;-80
2023/02/15 14:41:43;;;;;;;0.00;0.00;;;;;;;26.03;28.55;100930.06;6193384;23;20008;-81
2023/02/15 14:44:35;;;;;;;0.00;0.00;;;;;;;26.37;28.17;100922.97;6173083;23;20005;-79
2023/02/15 14:47:13;;;;;;;0.00;0.00;;;;;;;26.74;28.28;100902.25;6197553;23;20020;-81
2023/02/15 14:49:39;;;;;;;0.00;0.00;;;;;;;26.90;27.51;100917.03;6194948;23;19988;-81
2023/02/15 14:52:16;;;;;;;0.00;0.00;;;;;;;25.25;29.49;100896.66;6193880;23;20005;-80
2023/02/15 14:54:42;;;;;;;0.00;0.00;;;;;;;23.74;32.31;100940.00;6198864;23;20064;-79
2023/02/15 14:57:09;;;;;;;0.00;0.00;;;;;;;21.51;36.02;100903.91;6198718;23;19997;-80
2023/02/15 14:59:35;;;;;;;0.00;0.00;;;;;;;19.56;39.37;100901.88;6190593;23;20015;-80
2023/02/15 15:02:06;;;;;;;0.00;0.00;;;;;;;18.49;42.33;100897.59;6197356;23;20087;-81
2023/02/15 15:04:55;;;;;;;0.00;0.00;;;;;;;17.67;44.52;100882.47;6190857;23;20013;-79
2023/02/15 15:07:24;;;;;;;0.00;0.00;;;;;;;16.82;47.24;100874.91;6195299;23;20011;-79
2023/02/15 15:10:02;;;;;;;0.00;0.00;;;;;;;16.11;49.49;100882.94;6193298;23;20106;-79
2023/02/15 15:12:34;;;;;;;0.00;0.00;;;;;;;15.59;51.21;100881.75;6219709;23;20001;-81
2023/02/15 15:15:01;;;;;;;0.00;0.00;;;;;;;15.22;52.74;100888.66;6193459;23;20032;-81
2023/02/15 15:17:32;;;;;;;0.00;0.00;;;;;;;14.93;54.08;100881.13;6196495;23;20067;-81
2023/02/15 15:20:18;;;;;;;0.00;0.00;;;;;;;14.72;56.04;100885.88;6187848;23;20032;-81
2023/02/15 15:22:43;;;;;;;0.00;0.00;;;;;;;14.56;57.31;100876.84;6192563;23;20001;-80
2023/02/15 15:25:32;;;;;;;0.00;0.00;;;;;;;14.56;57.82;100877.69;6172638;23;20017;-79
2023/02/15 15:27:57;;;;;;;0.00;0.00;;;;;;;14.57;59.22;100884.00;6191269;23;20036;-82
2023/02/15 15:30:22;;;;;;;0.00;0.00;;;;;;;14.37;60.86;100880.22;6146226;23;20005;-79
2023/02/15 15:32:57;;;;;;;0.00;0.00;;;;;;;14.23;61.17;100880.00;6191778;23;20013;-81
2023/02/15 15:36:09;;;;;;;0.00;0.00;;;;;;;14.23;62.16;100880.00;6192824;23;20001;-78
2023/02/15 15:39:01;;;;;;;0.00;0.00;;;;;;;14.09;62.46;100874.25;6126178;23;20013;-81
2023/02/15 15:41:39;;;;;;;0.00;0.00;;;;;;;13.81;64.24;100875.66;6192179;23;20001;-81
2023/02/15 15:44:41;;;;;;;0.00;0.00;;;;;;;13.66;65.77;100879.25;6190154;23;19992;-81
2023/02/15 15:47:29;;;;;;;0.00;0.00;;;;;;;13.42;66.93;100879.81;6196195;23;20060;-81